createdAt,value
2023-01-09T00:01:21.856Z,11.64
2023-01-09T00:03:49.829Z,11.28
2023-01-09T00:06:17.926Z,10.96
2023-01-09T00:08:47.118Z,11.23
2023-01-09T00:11:15.049Z,10.75
2023-01-09T00:13:42.962Z,11.04
2023-01-09T00:16:11.043Z,11.23
2023-01-09T00:18:38.941Z,10.77
2023-01-09T00:21:08.597Z,10.48
2023-01-09T00:23:36.585Z,10.11
2023-01-09T00:26:08.403Z,10.15
2023-01-09T00:28:36.933Z,10.35
2023-01-09T00:31:06.995Z,10.60
2023-01-09T00:33:37.203Z,10.56
2023-01-09T00:36:05.312Z,9.83
2023-01-09T00:38:33.201Z,10.32
2023-01-09T00:41:03.285Z,10.51
2023-01-09T00:43:36.588Z,10.02
2023-01-09T00:46:07.719Z,9.39
2023-01-09T00:48:38.556Z,9.88
2023-01-09T00:51:08.184Z,9.02
2023-01-09T00:53:38.487Z,9.33
2023-01-09T00:56:09.617Z,9.20
2023-01-09T00:58:39.145Z,9.14
2023-01-09T01:01:07.370Z,8.90
2023-01-09T01:03:35.410Z,8.99
2023-01-09T01:06:25.840Z,9.17
2023-01-09T01:08:55.753Z,9.35
2023-01-09T01:11:24.431Z,9.74
2023-01-09T01:13:54.208Z,9.93
2023-01-09T01:16:22.097Z,9.88
2023-01-09T01:18:50.523Z,10.36
2023-01-09T01:21:18.762Z,9.92
2023-01-09T01:23:46.701Z,10.03
2023-01-09T01:26:16.391Z,9.50
2023-01-09T01:28:45.453Z,9.93
2023-01-09T01:31:18.988Z,10.00
2023-01-09T01:33:47.608Z,9.34
2023-01-09T01:36:17.426Z,9.81
2023-01-09T01:38:46.890Z,9.29
2023-01-09T01:41:14.892Z,9.24
2023-01-09T01:43:53.775Z,9.22
2023-01-09T01:46:23.436Z,9.42
2023-01-09T01:48:55.078Z,9.34
2023-01-09T01:51:25.323Z,9.38
2023-01-09T01:53:56.267Z,9.37
2023-01-09T01:56:28.022Z,9.52
2023-01-09T01:59:02.252Z,9.70
2023-01-09T02:01:33.119Z,9.51
2023-01-09T02:04:03.759Z,9.31
2023-01-09T02:06:34.890Z,9.68
2023-01-09T02:09:04.351Z,9.71
2023-01-09T02:11:32.560Z,9.98
2023-01-09T02:14:01.649Z,9.58
2023-01-09T02:16:47.706Z,9.63
2023-01-09T02:19:33.181Z,9.97
2023-01-09T02:22:12.714Z,10.06
2023-01-09T02:25:10.097Z,10.39
2023-01-09T02:28:06.827Z,10.45
2023-01-09T02:30:45.236Z,10.42
2023-01-09T02:33:30.343Z,9.93
2023-01-09T02:36:21.287Z,10.07
2023-01-09T02:39:00.769Z,9.48
2023-01-09T02:41:36.042Z,9.76
2023-01-09T02:44:15.860Z,9.29
2023-01-09T02:46:45.240Z,9.42
2023-01-09T02:49:17.177Z,10.46
2023-01-09T02:51:53.357Z,10.08
2023-01-09T02:54:30.519Z,9.25
2023-01-09T02:57:12.975Z,9.81
2023-01-09T02:59:54.850Z,9.92
2023-01-09T03:02:40.380Z,9.67
2023-01-09T03:05:15.751Z,9.82
2023-01-09T03:07:49.301Z,9.78
2023-01-09T03:10:21.829Z,9.43
2023-01-09T03:12:54.557Z,9.13
2023-01-09T03:15:27.014Z,9.27
2023-01-09T03:17:58.305Z,9.43
2023-01-09T03:20:28.678Z,8.80
2023-01-09T03:22:58.978Z,8.98
2023-01-09T03:25:28.396Z,9.17
2023-01-09T03:27:58.904Z,8.92
2023-01-09T03:30:28.209Z,9.24
2023-01-09T03:32:58.084Z,9.21
2023-01-09T03:35:26.073Z,9.08
2023-01-09T03:37:54.014Z,9.59
2023-01-09T03:40:22.426Z,9.35
2023-01-09T03:42:50.390Z,7.03
2023-01-09T03:45:18.267Z,6.55
2023-01-09T03:47:46.110Z,9.42
2023-01-09T03:50:15.391Z,9.64
2023-01-09T03:52:43.233Z,9.79
2023-01-09T03:55:11.326Z,10.15
2023-01-09T03:57:39.123Z,9.84
2023-01-09T04:00:09.178Z,9.82
2023-01-09T04:02:43.261Z,9.75
2023-01-09T04:05:11.710Z,9.86
2023-01-09T04:07:40.868Z,9.85
2023-01-09T04:10:09.748Z,9.69
2023-01-09T04:12:37.525Z,9.74
2023-01-09T04:15:05.967Z,9.92
2023-01-09T04:17:33.756Z,9.50
2023-01-09T04:20:01.637Z,9.82
2023-01-09T04:22:31.253Z,9.69
2023-01-09T04:25:00.398Z,9.94
2023-01-09T04:27:28.263Z,9.56
2023-01-09T04:29:56.081Z,9.77
2023-01-09T04:32:23.900Z,9.95
2023-01-09T04:34:51.646Z,8.28
2023-01-09T04:37:19.493Z,9.41
2023-01-09T04:39:47.616Z,9.27
2023-01-09T04:42:16.841Z,9.09
2023-01-09T04:44:44.684Z,9.57
2023-01-09T04:47:13.545Z,8.98
2023-01-09T04:49:41.385Z,9.59
2023-01-09T04:52:09.215Z,9.48
2023-01-09T04:54:36.984Z,9.20
2023-01-09T04:57:04.936Z,9.02
2023-01-09T04:59:34.196Z,8.99
2023-01-09T05:02:02.237Z,8.87
2023-01-09T05:04:30.137Z,9.28
2023-01-09T05:06:57.895Z,8.95
2023-01-09T05:09:25.696Z,9.28
2023-01-09T05:11:53.734Z,9.13
2023-01-09T05:14:21.719Z,9.21
2023-01-09T05:16:50.994Z,9.17
2023-01-09T05:19:19.064Z,8.90
2023-01-09T05:21:47.450Z,8.78
2023-01-09T05:24:15.325Z,8.46
2023-01-09T05:26:43.119Z,8.75
2023-01-09T05:29:11.753Z,8.75
2023-01-09T05:31:39.540Z,8.46
2023-01-09T05:34:08.793Z,8.78
2023-01-09T05:36:37.027Z,8.42
2023-01-09T05:39:05.849Z,8.40
2023-01-09T05:41:33.669Z,8.84
2023-01-09T05:44:01.776Z,9.14
2023-01-09T05:46:29.602Z,9.19
2023-01-09T05:48:57.595Z,9.22
2023-01-09T05:51:26.806Z,6.64
2023-01-09T05:53:54.675Z,5.99
2023-01-09T05:56:22.560Z,6.25
2023-01-09T05:58:50.479Z,5.98
2023-01-09T06:01:18.281Z,8.56
2023-01-09T06:03:46.153Z,6.16
2023-01-09T06:06:13.921Z,6.73
2023-01-09T06:08:43.122Z,6.30
2023-01-09T06:11:10.955Z,7.02
2023-01-09T06:13:38.799Z,9.71
2023-01-09T06:16:07.775Z,9.77
2023-01-09T06:18:35.663Z,9.60
2023-01-09T06:21:03.484Z,9.29
2023-01-09T06:23:31.364Z,9.35
2023-01-09T06:26:00.597Z,8.85
2023-01-09T06:28:28.425Z,9.83
2023-01-09T06:30:56.339Z,9.22
2023-01-09T06:33:24.239Z,9.61
2023-01-09T06:35:52.156Z,9.26
2023-01-09T06:38:20.059Z,9.35
2023-01-09T06:40:48.010Z,9.91
2023-01-09T06:43:17.327Z,9.84
2023-01-09T06:45:45.215Z,9.69
2023-01-09T06:48:13.695Z,9.42
2023-01-09T06:50:41.896Z,9.29
2023-01-09T06:53:10.624Z,9.32
2023-01-09T06:55:38.615Z,9.26
2023-01-09T06:58:06.594Z,9.20
2023-01-09T07:00:36.190Z,9.43
2023-01-09T07:03:04.487Z,8.95
2023-01-09T07:05:35.616Z,9.10
2023-01-09T07:08:03.547Z,9.55
2023-01-09T07:10:31.446Z,9.26
2023-01-09T07:12:59.312Z,8.96
2023-01-09T07:15:27.346Z,9.25
2023-01-09T07:17:56.539Z,9.21
2023-01-09T07:20:24.500Z,8.62
2023-01-09T07:22:52.356Z,8.85
2023-01-09T07:25:20.209Z,8.90
2023-01-09T07:27:48.935Z,8.86
2023-01-09T07:30:17.418Z,8.69
2023-01-09T07:32:45.469Z,8.73
2023-01-09T07:35:14.790Z,9.03
2023-01-09T07:37:42.576Z,8.87
2023-01-09T07:40:11.810Z,8.88
2023-01-09T07:42:39.741Z,8.41
2023-01-09T07:45:09.021Z,8.50
2023-01-09T07:47:37.143Z,8.99
2023-01-09T07:50:05.345Z,9.07
2023-01-09T07:52:34.472Z,8.69
2023-01-09T07:55:02.337Z,8.81
2023-01-09T07:57:30.847Z,8.81
2023-01-09T08:00:00.576Z,9.48
2023-01-09T08:02:28.753Z,9.47
2023-01-09T08:04:56.607Z,9.35
2023-01-09T08:07:24.463Z,9.12
2023-01-09T08:09:53.662Z,8.89
2023-01-09T08:12:21.530Z,7.19
2023-01-09T08:14:49.370Z,6.57
2023-01-09T08:17:17.178Z,7.19
2023-01-09T08:19:45.270Z,6.41
2023-01-09T08:22:13.103Z,7.63
2023-01-09T08:24:40.966Z,6.16
2023-01-09T08:27:10.214Z,8.37
2023-01-09T08:29:38.924Z,6.53
2023-01-09T08:32:06.946Z,6.51
2023-01-09T08:34:34.856Z,6.82
2023-01-09T08:37:02.698Z,6.79
2023-01-09T08:39:30.693Z,7.60
2023-01-09T08:42:16.292Z,6.91
2023-01-09T08:45:02.865Z,7.23
2023-01-09T08:47:33.348Z,7.07
2023-01-09T08:50:01.566Z,6.99
2023-01-09T08:52:30.614Z,7.03
2023-01-09T08:54:58.574Z,7.08
2023-01-09T08:57:26.495Z,6.93
2023-01-09T08:59:55.756Z,6.61
2023-01-09T09:02:23.882Z,6.80
2023-01-09T09:04:53.663Z,6.66
2023-01-09T09:07:26.607Z,6.92
2023-01-09T09:09:54.994Z,6.77
2023-01-09T09:12:23.952Z,7.10
2023-01-09T09:15:09.442Z,9.07
2023-01-09T09:17:38.661Z,7.15
2023-01-09T09:20:07.843Z,7.07
2023-01-09T09:22:35.710Z,7.34
2023-01-09T09:25:04.888Z,7.36
2023-01-09T09:27:33.374Z,7.47
2023-01-09T09:30:01.257Z,7.66
2023-01-09T09:32:29.282Z,7.51
2023-01-09T09:34:58.556Z,7.16
2023-01-09T09:37:26.362Z,7.66
2023-01-09T09:39:54.423Z,7.26
2023-01-09T09:43:05.428Z,7.27
2023-01-09T09:45:44.557Z,7.20
2023-01-09T09:48:27.452Z,7.22
2023-01-09T09:51:19.227Z,7.35
2023-01-09T09:53:52.756Z,7.04
2023-01-09T09:56:24.378Z,7.10
2023-01-09T09:58:55.202Z,7.28
2023-01-09T10:01:26.638Z,7.34
2023-01-09T10:03:58.414Z,7.45
2023-01-09T10:06:30.565Z,7.33
2023-01-09T10:09:04.954Z,7.24
2023-01-09T10:11:40.508Z,7.43
2023-01-09T10:14:19.420Z,7.49
2023-01-09T10:17:04.766Z,9.08
2023-01-09T10:19:42.718Z,7.18
2023-01-09T10:22:25.024Z,7.40
2023-01-09T10:25:13.964Z,7.20
2023-01-09T10:28:03.404Z,7.03
2023-01-09T10:30:38.716Z,7.42
2023-01-09T10:33:24.556Z,7.58
2023-01-09T10:36:26.324Z,7.67
2023-01-09T10:39:00.141Z,7.77
2023-01-09T10:41:32.839Z,7.78
2023-01-09T10:44:06.825Z,8.01
2023-01-09T10:46:40.401Z,7.85
2023-01-09T10:49:13.788Z,8.12
2023-01-09T10:51:47.927Z,7.95
2023-01-09T10:54:20.059Z,7.61
2023-01-09T10:56:55.463Z,7.58
2023-01-09T10:59:23.564Z,9.19
2023-01-09T11:01:51.618Z,8.00
2023-01-09T11:04:27.108Z,10.29
2023-01-09T11:07:00.935Z,8.06
2023-01-09T11:09:50.229Z,9.28
2023-01-09T11:12:26.097Z,8.55
2023-01-09T11:14:54.028Z,8.55
2023-01-09T11:17:26.601Z,8.16
2023-01-09T11:20:06.628Z,10.79
2023-01-09T11:22:44.681Z,10.69
2023-01-09T11:25:16.435Z,10.60
2023-01-09T11:27:44.513Z,9.78
2023-01-09T11:30:23.975Z,9.91
2023-01-09T11:32:51.847Z,10.87
2023-01-09T11:35:23.978Z,10.84
2023-01-09T11:38:02.346Z,11.07
2023-01-09T11:40:36.531Z,10.92
2023-01-09T11:43:12.307Z,10.92
2023-01-09T11:45:56.444Z,10.89
2023-01-09T11:48:34.387Z,10.79
2023-01-09T11:51:03.677Z,11.07
2023-01-09T11:53:46.637Z,11.18
2023-01-09T11:56:17.634Z,10.92
2023-01-09T11:58:45.836Z,10.90
2023-01-09T12:01:34.712Z,11.04
2023-01-09T12:04:24.891Z,11.01
2023-01-09T12:07:07.153Z,10.97
2023-01-09T12:09:42.537Z,10.73
2023-01-09T12:12:25.603Z,10.80
2023-01-09T12:15:10.184Z,10.74
2023-01-09T12:17:51.939Z,10.98
2023-01-09T12:20:34.384Z,11.22
2023-01-09T12:23:19.687Z,11.39
2023-01-09T12:25:59.494Z,11.50
2023-01-09T12:28:45.791Z,11.42
2023-01-09T12:31:30.016Z,11.04
2023-01-09T12:34:08.558Z,11.14
2023-01-09T12:36:45.076Z,11.22
2023-01-09T12:39:26.508Z,10.85
2023-01-09T12:42:08.755Z,10.91
2023-01-09T12:44:52.254Z,10.58
2023-01-09T12:47:39.455Z,10.89
2023-01-09T12:50:24.806Z,10.46
2023-01-09T12:53:06.540Z,10.30
2023-01-09T12:55:38.027Z,10.40
2023-01-09T12:58:13.062Z,10.50
2023-01-09T13:00:46.525Z,8.27
2023-01-09T13:03:21.572Z,10.59
2023-01-09T13:05:53.135Z,10.37
2023-01-09T13:08:26.805Z,10.25
2023-01-09T13:11:03.321Z,10.27
2023-01-09T13:13:44.331Z,10.53
2023-01-09T13:16:17.127Z,10.48
2023-01-09T13:18:48.911Z,10.63
2023-01-09T13:21:17.868Z,9.91
2023-01-09T13:23:52.439Z,9.87
2023-01-09T13:26:24.610Z,9.64
2023-01-09T13:28:57.104Z,9.92
2023-01-09T13:31:40.562Z,9.88
2023-01-09T13:34:21.720Z,9.79
2023-01-09T13:36:52.840Z,9.75
2023-01-09T13:39:22.895Z,10.51
2023-01-09T13:42:13.222Z,10.10
2023-01-09T13:44:41.622Z,10.34
2023-01-09T13:47:20.035Z,10.30
2023-01-09T13:50:06.067Z,10.20
2023-01-09T13:52:37.255Z,9.68
2023-01-09T13:55:30.226Z,9.73
2023-01-09T13:58:25.916Z,9.86
2023-01-09T14:01:27.378Z,9.39
2023-01-09T14:04:38.277Z,9.74
2023-01-09T14:07:20.338Z,10.25
2023-01-09T14:09:51.917Z,10.06
2023-01-09T14:12:21.551Z,9.94
2023-01-09T14:14:51.785Z,9.67
2023-01-09T14:17:28.385Z,9.94
2023-01-09T14:20:00.338Z,9.91
2023-01-09T14:22:30.532Z,10.00
2023-01-09T14:25:05.615Z,9.48
2023-01-09T14:28:08.367Z,9.63
2023-01-09T14:30:40.109Z,9.75
2023-01-09T14:33:27.605Z,9.87
2023-01-09T14:36:06.563Z,10.11
2023-01-09T14:38:37.157Z,9.40
2023-01-09T14:41:10.799Z,7.62
2023-01-09T14:43:58.123Z,7.48
2023-01-09T14:46:30.925Z,7.47
2023-01-09T14:49:07.056Z,7.19
2023-01-09T14:51:43.771Z,6.78
2023-01-09T14:54:25.262Z,6.85
2023-01-09T14:56:54.107Z,7.12
2023-01-09T14:59:21.972Z,8.58
2023-01-09T15:01:55.411Z,8.33
2023-01-09T15:04:35.783Z,7.26
2023-01-09T15:07:07.004Z,7.08
2023-01-09T15:09:44.315Z,9.69
2023-01-09T15:12:19.482Z,7.17
2023-01-09T15:14:51.526Z,7.02
2023-01-09T15:17:22.551Z,6.80
2023-01-09T15:19:50.578Z,7.30
2023-01-09T15:22:26.367Z,7.15
2023-01-09T15:24:54.338Z,6.66
2023-01-09T15:27:23.349Z,7.26
2023-01-09T15:29:51.507Z,7.12
2023-01-09T15:32:25.133Z,6.54
2023-01-09T15:34:54.667Z,6.85
2023-01-09T15:37:29.662Z,6.65
2023-01-09T15:39:59.007Z,6.63
2023-01-09T15:42:47.314Z,6.79
2023-01-09T15:45:26.080Z,6.57
2023-01-09T15:47:54.705Z,7.15
2023-01-09T15:50:28.421Z,7.45
2023-01-09T15:52:58.116Z,6.56
2023-01-09T15:55:35.203Z,6.86
2023-01-09T15:58:04.257Z,6.99
2023-01-09T16:00:41.976Z,6.67
2023-01-09T16:03:23.154Z,6.55
2023-01-09T16:05:53.957Z,6.86
2023-01-09T16:08:26.870Z,7.03
2023-01-09T16:10:57.191Z,7.00
2023-01-09T16:13:27.901Z,6.92
2023-01-09T16:15:57.455Z,6.79
2023-01-09T16:18:31.863Z,6.81
2023-01-09T16:21:21.867Z,6.77
2023-01-09T16:23:57.418Z,6.60
2023-01-09T16:26:27.244Z,6.55
2023-01-09T16:28:55.565Z,6.57
2023-01-09T16:31:26.570Z,6.60
2023-01-09T16:34:05.873Z,6.59
2023-01-09T16:36:36.150Z,6.28
2023-01-09T16:39:05.907Z,9.27
2023-01-09T16:41:51.314Z,7.06
2023-01-09T16:44:19.451Z,8.95
2023-01-09T16:46:48.828Z,9.34
2023-01-09T16:49:19.637Z,7.17
2023-01-09T16:51:48.461Z,8.63
2023-01-09T16:54:18.141Z,8.89
2023-01-09T16:56:51.756Z,6.88
2023-01-09T16:59:21.600Z,6.90
2023-01-09T17:01:49.601Z,8.68
2023-01-09T17:04:20.031Z,8.26
2023-01-09T17:06:49.551Z,7.01
2023-01-09T17:09:23.158Z,7.01
2023-01-09T17:11:52.034Z,8.69
2023-01-09T17:14:19.911Z,9.04
2023-01-09T17:16:47.888Z,6.53
2023-01-09T17:19:19.296Z,9.25
2023-01-09T17:21:47.368Z,6.51
2023-01-09T17:24:33.921Z,5.99
2023-01-09T17:27:21.749Z,6.39
2023-01-09T17:29:49.740Z,8.02
2023-01-09T17:32:18.671Z,6.19
2023-01-09T17:34:46.490Z,6.11
2023-01-09T17:37:16.491Z,6.28
2023-01-09T17:39:44.466Z,8.76
2023-01-09T17:42:13.799Z,9.66
2023-01-09T17:44:41.688Z,8.55
2023-01-09T17:47:15.212Z,6.97
2023-01-09T17:49:43.256Z,6.93
2023-01-09T17:52:11.178Z,6.64
2023-01-09T17:54:38.961Z,7.36
2023-01-09T17:57:07.809Z,7.40
2023-01-09T17:59:37.061Z,8.88
2023-01-09T18:02:04.975Z,9.35
2023-01-09T18:04:32.853Z,6.64
2023-01-09T18:07:00.654Z,8.83
2023-01-09T18:09:28.512Z,8.42
2023-01-09T18:11:56.558Z,8.91
2023-01-09T18:14:24.510Z,8.27
2023-01-09T18:16:53.795Z,7.87
2023-01-09T18:19:21.666Z,8.99
2023-01-09T18:21:49.499Z,7.21
2023-01-09T18:24:17.477Z,9.28
2023-01-09T18:26:45.310Z,9.13
2023-01-09T18:29:13.921Z,9.16
2023-01-09T18:31:41.981Z,9.62
2023-01-09T18:34:11.307Z,9.21
2023-01-09T18:36:39.520Z,9.32
2023-01-09T18:39:08.739Z,9.30
2023-01-09T18:41:36.621Z,8.96
2023-01-09T18:44:07.330Z,8.94
2023-01-09T18:56:48.419Z,9.36
2023-01-09T18:59:17.659Z,8.84
2023-01-09T19:01:45.378Z,8.77
2023-01-09T19:04:13.236Z,9.04
2023-01-09T19:06:41.090Z,8.89
2023-01-09T19:09:09.255Z,8.45
2023-01-09T19:11:37.034Z,8.76
2023-01-09T19:14:04.856Z,8.64
2023-01-09T19:16:33.993Z,8.79
2023-01-09T19:19:02.744Z,8.59
2023-01-09T19:21:30.679Z,8.69
2023-01-09T19:23:58.781Z,8.69
2023-01-09T19:26:28.781Z,8.18
2023-01-09T19:28:57.592Z,8.58
2023-01-09T19:31:28.464Z,8.14
2023-01-09T19:33:58.501Z,8.57
2023-01-09T19:36:26.923Z,8.68
2023-01-09T19:38:57.629Z,8.66
2023-01-09T19:41:25.365Z,8.48
2023-01-09T19:43:53.182Z,8.54
2023-01-09T19:46:23.046Z,9.01
2023-01-09T19:48:51.893Z,8.94
2023-01-09T19:51:22.494Z,8.92
2023-01-09T19:53:53.669Z,8.72
2023-01-09T19:56:23.426Z,8.65
2023-01-09T19:58:53.450Z,8.59
2023-01-09T20:01:24.609Z,8.33
2023-01-09T20:03:53.233Z,8.53
2023-01-09T20:06:24.361Z,8.29
2023-01-09T20:08:54.805Z,8.14
2023-01-09T20:11:23.463Z,8.55
2023-01-09T20:13:51.890Z,8.83
2023-01-09T20:16:22.039Z,8.86
2023-01-09T20:18:50.096Z,8.83
2023-01-09T20:21:21.646Z,8.01
2023-01-09T20:23:51.073Z,8.52
2023-01-09T20:26:18.880Z,8.74
2023-01-09T20:28:47.697Z,8.43
2023-01-09T20:31:17.423Z,8.98
2023-01-09T20:33:46.860Z,8.29
2023-01-09T20:36:15.183Z,8.82
2023-01-09T20:38:43.664Z,8.64
2023-01-09T20:41:22.607Z,8.45
2023-01-09T20:43:50.663Z,8.59
2023-01-09T20:46:19.164Z,8.86
2023-01-09T20:48:46.995Z,9.09
2023-01-09T20:51:15.023Z,8.72
2023-01-09T20:53:45.191Z,8.45
2023-01-09T20:56:15.007Z,8.40
2023-01-09T20:58:43.208Z,8.47
2023-01-09T21:01:12.683Z,6.85
2023-01-09T21:03:41.120Z,8.06
2023-01-09T21:06:11.217Z,6.34
2023-01-09T21:08:39.535Z,6.33
2023-01-09T21:11:07.274Z,6.27
2023-01-09T21:13:36.390Z,6.05
2023-01-09T21:16:08.262Z,8.26
2023-01-09T21:18:37.746Z,8.40
2023-01-09T21:21:06.589Z,8.58
2023-01-09T21:23:34.621Z,8.54
2023-01-09T21:26:02.932Z,8.56
2023-01-09T21:28:31.709Z,8.87
2023-01-09T21:31:00.877Z,8.65
2023-01-09T21:33:28.764Z,8.56
2023-01-09T21:35:57.787Z,8.81
2023-01-09T21:38:27.001Z,8.78
2023-01-09T21:40:55.386Z,8.81
2023-01-09T21:43:44.742Z,8.66
2023-01-09T21:46:37.846Z,6.21
2023-01-09T21:49:06.749Z,6.16
2023-01-09T21:51:38.809Z,6.05
2023-01-09T21:54:06.822Z,6.09
2023-01-09T21:56:34.845Z,5.98
2023-01-09T21:59:03.103Z,5.98
2023-01-09T22:01:33.650Z,6.08
2023-01-09T22:04:01.798Z,5.83
2023-01-09T22:06:29.739Z,6.19
2023-01-09T22:08:57.680Z,6.27
2023-01-09T22:11:25.647Z,6.08
2023-01-09T22:13:54.435Z,6.07
2023-01-09T22:16:24.381Z,6.33
2023-01-09T22:18:54.334Z,6.31
2023-01-09T22:21:23.290Z,6.22
2023-01-09T22:23:51.398Z,6.01
2023-01-09T22:26:19.983Z,6.09
2023-01-09T22:28:48.621Z,6.12
2023-01-09T22:31:19.814Z,6.03
2023-01-09T22:33:51.310Z,6.32
2023-01-09T22:36:21.017Z,6.36
2023-01-09T22:38:48.905Z,6.49
2023-01-09T22:41:16.850Z,6.31
2023-01-09T22:43:44.833Z,6.33
2023-01-09T22:46:12.801Z,6.44
2023-01-09T22:48:42.060Z,6.27
2023-01-09T22:51:15.157Z,6.19
2023-01-09T22:53:44.483Z,8.99
2023-01-09T22:56:15.260Z,6.90
2023-01-09T22:58:43.267Z,6.31
2023-01-09T23:01:12.497Z,6.41
2023-01-09T23:03:41.225Z,8.73
2023-01-09T23:06:12.712Z,9.08
2023-01-09T23:08:41.487Z,9.45
2023-01-09T23:11:13.041Z,9.69
2023-01-09T23:13:40.920Z,9.56
2023-01-09T23:16:09.364Z,9.01
2023-01-09T23:18:37.240Z,9.51
2023-01-09T23:21:06.129Z,9.40
2023-01-09T23:23:34.273Z,9.45
2023-01-09T23:26:04.754Z,9.10
2023-01-09T23:28:34.137Z,9.43
2023-01-09T23:31:02.079Z,9.45
2023-01-09T23:33:30.085Z,9.00
2023-01-09T23:35:58.567Z,9.51
2023-01-09T23:38:26.399Z,9.64
2023-01-09T23:40:57.933Z,9.43
2023-01-09T23:43:24.877Z,9.35
2023-01-09T23:45:54.146Z,9.58
2023-01-09T23:48:22.115Z,9.39
2023-01-09T23:50:52.004Z,9.19
2023-01-09T23:53:20.963Z,9.31
2023-01-09T23:55:49.050Z,9.38
2023-01-09T23:58:17.020Z,9.05
